createdAt,value
2018-06-21T00:01:19.718Z,15.30
2018-06-21T00:03:48.263Z,15.23
2018-06-21T00:06:16.831Z,16.03
2018-06-21T00:08:45.096Z,18.20
2018-06-21T00:11:13.382Z,15.50
2018-06-21T00:13:41.667Z,13.77
2018-06-21T00:16:10.194Z,15.70
2018-06-21T00:18:38.846Z,16.00
2018-06-21T00:21:07.817Z,16.17
2018-06-21T00:23:36.113Z,17.17
2018-06-21T00:26:04.768Z,15.37
2018-06-21T00:28:33.051Z,13.10
2018-06-21T00:31:01.332Z,15.30
2018-06-21T00:33:29.905Z,15.03
2018-06-21T00:35:58.143Z,16.17
2018-06-21T00:38:26.684Z,14.63
2018-06-21T00:40:55.304Z,14.33
2018-06-21T00:43:24.500Z,17.77
2018-06-21T00:45:53.126Z,14.87
2018-06-21T00:48:22.185Z,15.00
2018-06-21T00:50:50.748Z,15.27
2018-06-21T00:53:19.285Z,13.60
2018-06-21T00:55:53.291Z,14.30
2018-06-21T00:58:23.270Z,13.83
2018-06-21T01:00:53.262Z,12.23
2018-06-21T01:03:23.306Z,14.23
2018-06-21T01:05:52.905Z,13.53
2018-06-21T01:08:22.116Z,16.20
2018-06-21T01:10:50.693Z,16.70
2018-06-21T01:13:19.230Z,12.97
2018-06-21T01:15:47.812Z,18.23
2018-06-21T01:18:16.380Z,15.03
2018-06-21T01:20:44.628Z,13.47
2018-06-21T01:23:13.202Z,15.00
2018-06-21T01:25:41.717Z,16.97
2018-06-21T01:28:10.274Z,17.30
2018-06-21T01:30:38.800Z,16.53
2018-06-21T01:33:07.385Z,16.17
2018-06-21T01:35:35.908Z,18.13
2018-06-21T01:38:04.543Z,15.70
2018-06-21T01:40:33.184Z,16.10
2018-06-21T01:43:01.770Z,17.80
2018-06-21T01:45:30.298Z,15.53
2018-06-21T01:47:58.881Z,16.87
2018-06-21T01:50:27.887Z,15.13
2018-06-21T01:52:56.516Z,17.30
2018-06-21T01:55:25.601Z,14.83
2018-06-21T01:57:55.220Z,16.50
2018-06-21T02:00:24.704Z,20.27
2018-06-21T02:02:54.028Z,19.53
2018-06-21T02:05:23.258Z,18.33
2018-06-21T02:07:52.106Z,17.20
2018-06-21T02:10:20.725Z,19.20
2018-06-21T02:12:49.044Z,17.33
2018-06-21T02:15:17.658Z,16.17
2018-06-21T02:17:46.336Z,16.73
2018-06-21T02:20:14.930Z,15.77
2018-06-21T02:22:43.531Z,20.50
2018-06-21T02:25:11.790Z,16.17
2018-06-21T02:27:40.345Z,16.50
2018-06-21T02:30:08.893Z,17.53
2018-06-21T02:32:37.459Z,14.63
2018-06-21T02:35:05.719Z,18.60
2018-06-21T02:37:34.295Z,16.33
2018-06-21T02:40:02.912Z,17.33
2018-06-21T02:42:31.186Z,19.63
2018-06-21T02:44:59.465Z,19.67
2018-06-21T02:47:28.163Z,17.47
2018-06-21T02:49:56.774Z,21.30
2018-06-21T02:52:25.840Z,19.50
2018-06-21T02:54:54.163Z,16.73
2018-06-21T02:57:23.148Z,17.07
2018-06-21T02:59:52.146Z,16.47
2018-06-21T03:02:20.726Z,17.33
2018-06-21T03:04:49.255Z,21.77
2018-06-21T03:07:17.574Z,20.03
2018-06-21T03:09:46.065Z,19.30
2018-06-21T03:12:20.140Z,19.53
2018-06-21T03:14:48.664Z,23.50
2018-06-21T03:17:17.246Z,24.50
2018-06-21T03:19:45.817Z,18.70
2018-06-21T03:22:14.345Z,21.23
2018-06-21T03:24:42.590Z,18.47
2018-06-21T03:27:11.625Z,16.63
2018-06-21T03:29:40.454Z,15.50
2018-06-21T03:32:09.381Z,14.97
2018-06-21T03:34:37.970Z,17.27
2018-06-21T03:37:06.547Z,19.03
2018-06-21T03:39:35.068Z,17.17
2018-06-21T03:42:03.635Z,15.90
2018-06-21T03:44:31.850Z,16.33
2018-06-21T03:47:00.451Z,19.03
2018-06-21T03:49:29.476Z,19.23
2018-06-21T03:51:58.012Z,18.10
2018-06-21T03:54:27.062Z,20.93
2018-06-21T03:56:55.289Z,17.77
2018-06-21T03:59:24.598Z,23.10
2018-06-21T04:01:53.163Z,18.63
2018-06-21T04:04:22.171Z,18.57
2018-06-21T04:06:50.716Z,17.87
2018-06-21T04:09:19.216Z,18.00
2018-06-21T04:11:47.785Z,17.70
2018-06-21T04:14:16.307Z,16.67
2018-06-21T04:16:44.881Z,18.27
2018-06-21T04:19:13.384Z,23.53
2018-06-21T04:21:41.928Z,18.17
2018-06-21T04:24:10.479Z,18.27
2018-06-21T04:26:39.082Z,20.73
2018-06-21T04:29:07.604Z,19.13
2018-06-21T04:31:36.143Z,27.07
2018-06-21T04:34:04.799Z,23.97
2018-06-21T04:36:33.036Z,19.23
2018-06-21T04:39:01.616Z,16.17
2018-06-21T04:41:30.605Z,19.30
2018-06-21T04:43:59.158Z,17.63
2018-06-21T04:46:27.682Z,24.67
2018-06-21T04:48:56.223Z,16.50
2018-06-21T04:51:25.318Z,16.00
2018-06-21T04:53:55.287Z,23.97
2018-06-21T04:56:24.547Z,18.60
2018-06-21T04:58:53.905Z,16.73
2018-06-21T05:01:22.980Z,14.27
2018-06-21T05:03:52.263Z,12.90
2018-06-21T05:06:20.854Z,16.77
2018-06-21T05:08:49.382Z,18.20
2018-06-21T05:11:17.949Z,14.00
2018-06-21T05:13:46.184Z,12.97
2018-06-21T05:16:14.738Z,13.60
2018-06-21T05:18:43.266Z,15.47
2018-06-21T05:21:14.572Z,13.23
2018-06-21T05:23:43.225Z,15.77
2018-06-21T05:26:11.493Z,14.40
2018-06-21T05:28:40.458Z,10.20
2018-06-21T05:31:09.040Z,13.37
2018-06-21T05:33:37.727Z,11.17
2018-06-21T05:36:06.590Z,10.73
2018-06-21T05:38:35.147Z,13.00
2018-06-21T05:41:03.860Z,11.67
2018-06-21T05:43:32.516Z,10.77
2018-06-21T05:46:01.023Z,12.80
2018-06-21T05:48:29.588Z,14.73
2018-06-21T05:50:58.114Z,10.30
2018-06-21T05:53:26.655Z,11.50
2018-06-21T05:55:55.217Z,10.93
2018-06-21T05:58:24.478Z,11.10
2018-06-21T06:00:54.170Z,10.20
2018-06-21T06:03:23.160Z,9.63
2018-06-21T06:05:52.271Z,9.90
2018-06-21T06:08:20.891Z,11.57
2018-06-21T06:10:49.420Z,9.60
2018-06-21T06:13:17.974Z,9.00
2018-06-21T06:15:46.563Z,10.17
2018-06-21T06:18:15.077Z,9.53
2018-06-21T06:20:43.635Z,9.93
2018-06-21T06:23:12.287Z,10.07
2018-06-21T06:25:40.781Z,11.13
2018-06-21T06:28:09.089Z,7.20
2018-06-21T06:30:37.698Z,11.53
2018-06-21T06:33:06.264Z,8.20
2018-06-21T06:35:34.808Z,9.33
2018-06-21T06:38:03.397Z,8.87
2018-06-21T06:40:31.952Z,8.43
2018-06-21T06:43:00.540Z,6.17
2018-06-21T06:45:29.128Z,6.67
2018-06-21T06:47:57.363Z,5.93
2018-06-21T06:50:26.001Z,7.57
2018-06-21T06:52:55.949Z,7.13
2018-06-21T06:55:25.408Z,7.90
2018-06-21T06:57:53.648Z,5.23
2018-06-21T07:00:22.260Z,7.43
2018-06-21T07:02:50.795Z,5.60
2018-06-21T07:05:19.301Z,6.60
2018-06-21T07:07:47.871Z,6.83
2018-06-21T07:10:16.465Z,6.77
2018-06-21T07:12:45.032Z,8.67
2018-06-21T07:15:13.709Z,6.47
2018-06-21T07:17:42.244Z,6.87
2018-06-21T07:20:10.494Z,5.67
2018-06-21T07:22:39.053Z,6.47
2018-06-21T07:25:07.581Z,6.77
2018-06-21T07:27:36.232Z,5.30
2018-06-21T07:30:04.803Z,5.37
2018-06-21T07:32:33.383Z,6.43
2018-06-21T07:35:01.892Z,6.78
2018-06-21T07:37:30.445Z,5.75
2018-06-21T07:39:58.952Z,5.25
2018-06-21T07:42:27.517Z,4.87
2018-06-21T07:44:56.011Z,4.10
2018-06-21T07:47:26.136Z,5.47
2018-06-21T07:49:55.520Z,4.40
2018-06-21T07:52:25.139Z,5.00
2018-06-21T07:54:54.679Z,5.22
2018-06-21T07:57:24.155Z,4.50
2018-06-21T07:59:53.236Z,6.12
2018-06-21T08:02:23.193Z,4.80
2018-06-21T08:04:52.456Z,3.77
2018-06-21T08:07:20.990Z,3.80
2018-06-21T08:09:49.508Z,4.35
2018-06-21T08:12:18.158Z,4.17
2018-06-21T08:14:46.714Z,4.37
2018-06-21T08:17:15.325Z,5.25
2018-06-21T08:19:43.900Z,4.58
2018-06-21T08:22:12.181Z,4.85
2018-06-21T08:24:40.472Z,4.45
2018-06-21T08:27:09.026Z,4.10
2018-06-21T08:29:37.303Z,5.30
2018-06-21T08:32:05.644Z,5.42
2018-06-21T08:34:34.425Z,5.30
2018-06-21T08:37:02.983Z,4.37
2018-06-21T08:39:31.480Z,4.25
2018-06-21T08:42:00.055Z,4.50
2018-06-21T08:44:28.595Z,4.17
2018-06-21T08:46:56.982Z,4.50
2018-06-21T08:49:25.214Z,5.17
2018-06-21T08:51:54.877Z,4.03
2018-06-21T08:54:24.825Z,3.42
2018-06-21T08:56:54.190Z,4.80
2018-06-21T08:59:23.271Z,4.03
2018-06-21T09:01:52.331Z,4.12
2018-06-21T09:04:20.889Z,5.45
2018-06-21T09:06:49.446Z,5.30
2018-06-21T09:09:18.015Z,5.83
2018-06-21T09:11:46.310Z,4.05
2018-06-21T09:14:14.852Z,8.28
2018-06-21T09:16:43.432Z,4.03
2018-06-21T09:19:11.969Z,4.45
2018-06-21T09:21:40.572Z,4.08
2018-06-21T09:24:09.088Z,3.90
2018-06-21T09:26:37.668Z,4.20
2018-06-21T09:29:06.422Z,6.53
2018-06-21T09:31:34.974Z,4.95
2018-06-21T09:34:03.488Z,4.30
2018-06-21T09:36:37.429Z,6.30
2018-06-21T09:39:14.350Z,3.55
2018-06-21T09:41:48.443Z,3.92
2018-06-21T09:44:23.993Z,4.12
2018-06-21T09:46:57.638Z,3.47
2018-06-21T09:49:29.208Z,6.03
2018-06-21T09:51:58.844Z,3.60
2018-06-21T09:54:27.447Z,7.75
2018-06-21T09:56:55.725Z,3.42
2018-06-21T09:59:25.389Z,3.85
2018-06-21T10:01:54.861Z,3.65
2018-06-21T10:04:24.373Z,4.33
2018-06-21T10:06:53.544Z,7.92
2018-06-21T10:09:23.233Z,4.10
2018-06-21T10:11:52.210Z,5.00
2018-06-21T10:14:21.132Z,5.35
2018-06-21T10:16:49.653Z,5.72
2018-06-21T10:19:18.166Z,4.75
2018-06-21T10:21:46.722Z,8.98
2018-06-21T10:24:15.212Z,3.30
2018-06-21T10:26:43.789Z,4.83
2018-06-21T10:29:12.335Z,6.58
2018-06-21T10:31:40.936Z,4.65
2018-06-21T10:34:09.451Z,10.08
2018-06-21T10:36:38.076Z,5.12
2018-06-21T10:39:08.759Z,6.07
2018-06-21T10:41:37.322Z,3.67
2018-06-21T10:44:05.912Z,6.07
2018-06-21T10:46:34.860Z,6.33
2018-06-21T10:49:03.437Z,5.50
2018-06-21T10:51:31.969Z,6.50
2018-06-21T10:54:00.548Z,1.20
2018-06-21T10:56:29.080Z,1.90
2018-06-21T10:58:57.389Z,0.80
2018-06-21T11:01:25.936Z,1.37
2018-06-21T11:03:54.219Z,0.60
2018-06-21T11:06:23.081Z,0.87
2018-06-21T11:08:52.365Z,2.20
2018-06-21T11:11:20.911Z,1.93
2018-06-21T11:13:49.482Z,0.90
2018-06-21T11:16:18.040Z,0.60
2018-06-21T11:18:46.716Z,3.10
2018-06-21T11:21:15.997Z,0.80
2018-06-21T11:23:44.529Z,2.17
2018-06-21T11:26:12.787Z,0.63
2018-06-21T11:28:41.370Z,0.50
2018-06-21T11:31:09.899Z,1.00
2018-06-21T11:33:38.573Z,0.50
2018-06-21T11:36:07.083Z,0.40
2018-06-21T11:38:35.619Z,1.13
2018-06-21T11:41:04.155Z,0.53
2018-06-21T11:43:32.716Z,2.33
2018-06-21T11:46:01.298Z,2.00
2018-06-21T11:48:29.910Z,0.30
2018-06-21T11:50:58.537Z,0.20
2018-06-21T11:53:27.105Z,0.23
2018-06-21T11:55:55.670Z,0.40
2018-06-21T11:58:25.543Z,0.50
2018-06-21T12:00:55.509Z,0.37
2018-06-21T12:03:25.416Z,0.73
2018-06-21T12:05:55.108Z,0.57
2018-06-21T12:08:24.424Z,3.80
2018-06-21T12:10:54.154Z,6.03
2018-06-21T12:13:23.355Z,0.77
2018-06-21T12:15:52.159Z,3.97
2018-06-21T12:18:20.837Z,0.80
2018-06-21T12:20:49.220Z,1.47
2018-06-21T12:23:17.807Z,0.80
2018-06-21T12:25:46.484Z,1.00
2018-06-21T12:28:14.761Z,1.20
2018-06-21T12:30:43.401Z,2.10
2018-06-21T12:33:12.063Z,1.40
2018-06-21T12:35:41.184Z,2.07
2018-06-21T12:38:09.902Z,1.30
2018-06-21T12:40:38.503Z,2.30
2018-06-21T12:43:07.169Z,1.03
2018-06-21T12:45:35.439Z,2.20
2018-06-21T12:48:03.786Z,1.13
2018-06-21T12:50:32.431Z,1.87
2018-06-21T12:53:00.985Z,1.73
2018-06-21T12:55:29.409Z,2.60
2018-06-21T12:57:58.051Z,1.70
2018-06-21T13:00:26.613Z,1.60
2018-06-21T13:02:55.396Z,4.10
2018-06-21T13:05:24.716Z,1.63
2018-06-21T13:07:53.762Z,1.47
2018-06-21T13:10:33.791Z,1.50
2018-06-21T13:13:13.428Z,1.40
2018-06-21T13:15:42.063Z,1.47
2018-06-21T13:18:10.687Z,1.20
2018-06-21T13:20:39.293Z,2.37
2018-06-21T13:23:07.911Z,0.93
2018-06-21T13:25:36.500Z,3.43
2018-06-21T13:28:05.758Z,1.20
2018-06-21T13:30:34.510Z,1.30
2018-06-21T13:33:03.021Z,2.03
2018-06-21T13:35:31.624Z,1.73
2018-06-21T13:38:00.160Z,1.23
2018-06-21T13:40:28.716Z,1.30
2018-06-21T13:42:57.316Z,2.63
2018-06-21T13:45:25.920Z,3.10
2018-06-21T13:47:55.052Z,1.53
2018-06-21T13:50:24.289Z,2.20
2018-06-21T13:52:53.309Z,1.80
2018-06-21T13:55:22.310Z,1.30
2018-06-21T13:57:50.875Z,1.40
2018-06-21T14:00:19.143Z,2.63
2018-06-21T14:02:47.795Z,4.40
2018-06-21T14:05:16.314Z,2.47
2018-06-21T14:07:44.584Z,3.50
2018-06-21T14:10:13.296Z,1.63
2018-06-21T14:12:41.817Z,1.60
2018-06-21T14:15:10.464Z,5.60
2018-06-21T14:17:39.262Z,1.43
2018-06-21T14:20:07.978Z,2.00
2018-06-21T14:22:37.629Z,1.53
2018-06-21T14:25:05.976Z,1.50
2018-06-21T14:27:34.475Z,4.07
2018-06-21T14:30:03.064Z,1.93
2018-06-21T14:32:31.612Z,4.37
2018-06-21T14:35:00.460Z,1.77
2018-06-21T14:37:29.007Z,2.63
2018-06-21T14:39:57.595Z,1.63
2018-06-21T14:42:26.161Z,5.13
2018-06-21T14:44:55.483Z,2.70
2018-06-21T14:47:24.827Z,1.17
2018-06-21T14:49:54.694Z,2.63
2018-06-21T14:52:23.309Z,1.63
2018-06-21T14:54:52.350Z,4.73
2018-06-21T14:57:20.940Z,3.87
2018-06-21T14:59:49.476Z,0.50
2018-06-21T15:02:18.095Z,2.27
2018-06-21T15:04:46.606Z,1.93
2018-06-21T15:07:15.230Z,2.67
2018-06-21T15:09:43.820Z,6.80
2018-06-21T15:12:12.528Z,4.37
2018-06-21T15:14:41.377Z,2.90
2018-06-21T15:17:10.149Z,4.13
2018-06-21T15:19:38.555Z,4.03
2018-06-21T15:22:07.645Z,3.10
2018-06-21T15:24:36.317Z,2.50
2018-06-21T15:27:05.019Z,6.10
2018-06-21T15:29:33.600Z,1.83
2018-06-21T15:32:02.331Z,1.80
2018-06-21T15:34:30.709Z,3.63
2018-06-21T15:36:59.437Z,2.40
2018-06-21T15:39:27.771Z,2.33
2018-06-21T15:41:56.400Z,2.50
2018-06-21T15:44:25.533Z,6.87
2018-06-21T15:46:54.919Z,3.03
2018-06-21T15:49:24.146Z,4.23
2018-06-21T15:51:53.332Z,2.17
2018-06-21T15:54:22.256Z,1.37
2018-06-21T15:56:50.911Z,3.53
2018-06-21T15:59:19.614Z,2.03
2018-06-21T16:01:48.231Z,0.97
2018-06-21T16:04:16.567Z,5.80
2018-06-21T16:06:45.260Z,2.50
2018-06-21T16:09:13.884Z,1.77
2018-06-21T16:11:42.181Z,1.03
2018-06-21T16:14:10.764Z,1.93
2018-06-21T16:16:39.491Z,4.93
2018-06-21T16:19:08.173Z,1.23
2018-06-21T16:21:36.808Z,3.43
2018-06-21T16:24:05.597Z,2.30
2018-06-21T16:26:34.173Z,3.70
2018-06-21T16:29:02.577Z,3.27
2018-06-21T16:31:31.348Z,3.70
2018-06-21T16:34:00.038Z,3.57
2018-06-21T16:36:28.770Z,3.30
2018-06-21T16:38:57.452Z,4.70
2018-06-21T16:41:26.433Z,2.50
2018-06-21T16:43:55.952Z,3.50
2018-06-21T16:46:25.405Z,1.70
2018-06-21T16:48:54.957Z,1.70
2018-06-21T16:51:24.560Z,6.57
2018-06-21T16:53:54.136Z,2.13
2018-06-21T16:56:23.359Z,1.77
2018-06-21T16:58:52.933Z,2.53
2018-06-21T17:01:23.476Z,1.20
2018-06-21T17:03:53.131Z,4.63
2018-06-21T17:06:23.441Z,2.27
2018-06-21T17:08:53.245Z,3.20
2018-06-21T17:11:22.356Z,1.37
2018-06-21T17:13:51.121Z,5.40
2018-06-21T17:16:19.847Z,6.03
2018-06-21T17:18:48.950Z,2.33
2018-06-21T17:21:17.707Z,1.03
2018-06-21T17:23:46.378Z,0.70
2018-06-21T17:26:15.037Z,2.70
2018-06-21T17:28:43.720Z,0.83
2018-06-21T17:31:12.426Z,1.43
2018-06-21T17:33:41.040Z,6.43
2018-06-21T17:36:09.792Z,6.70
2018-06-21T17:38:39.009Z,1.47
2018-06-21T17:41:07.713Z,1.03
2018-06-21T17:43:36.463Z,6.40
2018-06-21T17:46:05.139Z,2.57
2018-06-21T17:48:33.813Z,6.60
2018-06-21T17:51:02.521Z,4.20
2018-06-21T17:53:31.299Z,0.63
2018-06-21T17:55:59.979Z,0.83
2018-06-21T17:58:28.711Z,2.97
2018-06-21T18:00:57.543Z,5.20
2018-06-21T18:03:26.310Z,0.70
2018-06-21T18:05:55.839Z,3.17
2018-06-21T18:08:25.358Z,0.83
2018-06-21T18:10:54.599Z,3.77
2018-06-21T18:13:24.659Z,5.53
2018-06-21T18:15:53.919Z,1.07
2018-06-21T18:18:23.368Z,0.87
2018-06-21T18:20:52.755Z,4.83
2018-06-21T18:23:21.269Z,2.47
2018-06-21T18:25:50.141Z,2.20
2018-06-21T18:28:18.902Z,4.10
2018-06-21T18:30:47.612Z,0.70
2018-06-21T18:33:16.302Z,3.03
2018-06-21T18:35:45.243Z,0.67
2018-06-21T18:38:14.108Z,2.40
2018-06-21T18:40:42.965Z,1.77
2018-06-21T18:43:11.914Z,4.67
2018-06-21T18:45:40.699Z,2.50
2018-06-21T18:48:09.474Z,2.57
2018-06-21T18:50:38.356Z,0.70
2018-06-21T18:53:07.047Z,1.40
2018-06-21T18:55:35.798Z,2.43
2018-06-21T18:58:04.731Z,0.70
2018-06-21T19:00:33.561Z,0.47
2018-06-21T19:03:01.999Z,2.47
2018-06-21T19:05:30.799Z,1.50
2018-06-21T19:08:05.849Z,1.77
2018-06-21T19:10:40.059Z,0.83
2018-06-21T19:13:08.803Z,1.47
2018-06-21T19:15:37.729Z,0.40
2018-06-21T19:18:08.810Z,0.30
2018-06-21T19:20:38.097Z,0.40
2018-06-21T19:23:06.571Z,0.40
2018-06-21T19:25:35.311Z,0.83
2018-06-21T19:28:04.056Z,1.60
2018-06-21T19:30:33.419Z,2.30
2018-06-21T19:33:03.894Z,0.43
2018-06-21T19:35:33.221Z,1.07
2018-06-21T19:38:02.107Z,1.77
2018-06-21T19:40:31.385Z,0.40
2018-06-21T19:43:00.688Z,3.00
2018-06-21T19:45:29.411Z,0.93
2018-06-21T19:47:58.976Z,1.63
2018-06-21T19:50:27.440Z,1.80
2018-06-21T19:52:56.214Z,1.37
2018-06-21T19:55:25.608Z,0.37
2018-06-21T19:57:55.205Z,0.93
2018-06-21T20:00:24.961Z,0.53
2018-06-21T20:03:00.470Z,1.37
2018-06-21T20:05:29.791Z,0.50
2018-06-21T20:07:58.920Z,0.57
2018-06-21T20:10:28.144Z,1.87
2018-06-21T20:12:57.165Z,1.80
2018-06-21T20:15:26.419Z,1.87
2018-06-21T20:17:56.009Z,0.50
2018-06-21T20:20:31.124Z,1.60
2018-06-21T20:23:00.105Z,2.47
2018-06-21T20:25:28.993Z,1.77
2018-06-21T20:27:59.065Z,0.73
2018-06-21T20:30:27.886Z,1.47
2018-06-21T20:32:57.025Z,0.90
2018-06-21T20:35:25.685Z,0.83
2018-06-21T20:37:55.397Z,0.70
2018-06-21T20:40:25.154Z,0.97
2018-06-21T20:42:54.422Z,2.20
2018-06-21T20:45:23.320Z,2.43
2018-06-21T20:47:51.564Z,2.03
2018-06-21T20:50:20.416Z,2.70
2018-06-21T20:52:49.064Z,0.90
2018-06-21T20:55:17.414Z,2.10
2018-06-21T20:57:46.022Z,0.90
2018-06-21T21:00:16.325Z,3.90
2018-06-21T21:05:19.360Z,2.57
2018-06-21T21:07:49.160Z,3.73
2018-06-21T21:10:18.693Z,1.30
2018-06-21T21:12:47.352Z,1.37
2018-06-21T21:15:15.967Z,1.37
2018-06-21T21:17:44.518Z,3.13
2018-06-21T21:20:12.815Z,6.07
2018-06-21T21:22:41.902Z,1.80
2018-06-21T21:25:10.515Z,3.83
2018-06-21T21:27:39.160Z,1.00
2018-06-21T21:30:08.268Z,0.67
2018-06-21T21:32:37.128Z,0.83
2018-06-21T21:35:05.773Z,2.33
2018-06-21T21:37:34.405Z,0.90
2018-06-21T21:40:04.552Z,1.00
2018-06-21T21:42:34.760Z,2.53
2018-06-21T21:45:03.051Z,2.87
2018-06-21T21:47:31.638Z,1.23
2018-06-21T21:50:00.252Z,1.07
2018-06-21T21:52:28.903Z,1.87
2018-06-21T21:54:57.470Z,2.53
2018-06-21T21:57:25.820Z,2.90
2018-06-21T21:59:55.057Z,5.10
2018-06-21T22:02:24.598Z,1.20
2018-06-21T22:04:54.373Z,1.27
2018-06-21T22:07:23.476Z,1.80
2018-06-21T22:09:53.584Z,1.67
2018-06-21T22:12:22.464Z,1.43
2018-06-21T22:14:50.759Z,0.70
2018-06-21T22:17:19.324Z,1.73
2018-06-21T22:19:47.614Z,0.70
2018-06-21T22:22:16.161Z,3.37
2018-06-21T22:24:45.807Z,0.80
2018-06-21T22:27:14.080Z,4.87
2018-06-21T22:29:42.363Z,3.10
2018-06-21T22:32:10.945Z,2.00
2018-06-21T22:34:39.536Z,1.27
2018-06-21T22:37:08.157Z,0.97
2018-06-21T22:39:36.780Z,4.53
2018-06-21T22:42:05.112Z,4.60
2018-06-21T22:44:33.686Z,4.27
2018-06-21T22:47:02.231Z,1.60
2018-06-21T22:49:30.544Z,3.40
2018-06-21T22:51:59.133Z,4.07
2018-06-21T22:54:27.720Z,3.20
2018-06-21T22:56:56.361Z,2.03
2018-06-21T22:59:25.645Z,0.80
2018-06-21T23:01:53.947Z,3.10
2018-06-21T23:04:22.566Z,3.53
2018-06-21T23:06:51.186Z,3.90
2018-06-21T23:09:19.783Z,2.97
2018-06-21T23:11:48.633Z,3.17
2018-06-21T23:14:17.206Z,5.70
2018-06-21T23:16:45.742Z,1.17
2018-06-21T23:19:24.265Z,3.10
2018-06-21T23:21:53.535Z,4.07
2018-06-21T23:24:23.255Z,2.40
2018-06-21T23:26:53.770Z,1.90
2018-06-21T23:29:23.596Z,1.53
2018-06-21T23:31:52.484Z,2.23
2018-06-21T23:34:21.489Z,4.33
2018-06-21T23:36:50.150Z,1.73
2018-06-21T23:39:18.724Z,1.93
2018-06-21T23:41:47.281Z,2.87
2018-06-21T23:44:15.974Z,3.67
2018-06-21T23:46:44.756Z,3.73
2018-06-21T23:49:14.016Z,4.83
2018-06-21T23:51:42.639Z,5.50
2018-06-21T23:54:12.603Z,2.53
2018-06-21T23:56:41.926Z,2.53
2018-06-21T23:59:10.452Z,3.10
